TimeGMT,TemperatureF,Dew PointF,Humidity,Sea Level PressureIn,VisibilityMPH,Wind Direction,Wind SpeedMPH,Gust SpeedMPH,PrecipitationIn,Events,Conditions,WindDirDegrees,DateUTC
12:00 AM,49,45,80,29.46,12,SW,8.9,,,Rain,Light Rain,230,2013-11-06 00:00:00
12:00 AM,48.2,44.6,87,29.44,6.2,WSW,9.2,-,N/A,,Mostly Cloudy,240,2013-11-06 00:00:00
12:30 AM,48.2,44.6,87,29.44,6.2,SSW,8.1,-,N/A,,Mostly Cloudy,210,2013-11-06 00:30:00
1:00 AM,48.2,46.4,93,29.44,3.7,West,9.2,-,N/A,Rain,Light Rain,260,2013-11-06 01:00:00
1:30 AM,48.2,44.6,87,29.44,6.2,SW,9.2,-,N/A,Rain,Light Rain,220,2013-11-06 01:30:00
2:00 AM,48.2,46.4,93,29.44,6.2,SW,9.2,-,N/A,Rain,Light Rain,220,2013-11-06 02:00:00
2:30 AM,48.2,46.4,93,29.44,3.7,WSW,10.4,-,N/A,Rain,Light Rain,240,2013-11-06 02:30:00
3:00 AM,48.2,46.4,93,29.44,6.2,WSW,8.1,-,N/A,Rain,Light Rain,240,2013-11-06 03:00:00
3:30 AM,48.2,46.4,93,29.44,6.2,SSW,5.8,-,N/A,Rain,Light Rain,210,2013-11-06 03:30:00
4:00 AM,48.2,46.4,93,29.44,6.2,SW,8.1,-,N/A,Rain,Light Rain,220,2013-11-06 04:00:00
4:30 AM,48.2,46.4,93,29.44,6.2,West,6.9,-,N/A,Rain,Light Rain,260,2013-11-06 04:30:00
5:00 AM,48.2,46.4,93,29.44,6.2,SW,5.8,-,N/A,,Mostly Cloudy,230,2013-11-06 05:00:00
5:30 AM,48.2,46.4,93,29.44,6.2,SW,8.1,-,N/A,Rain,Light Rain,220,2013-11-06 05:30:00
6:00 AM,48,46,92,29.45,12,SW,8.9,,,Rain,Light Rain,220,2013-11-06 06:00:00
6:00 AM,48.2,46.4,93,29.44,6.2,SW,6.9,-,N/A,,Mostly Cloudy,220,2013-11-06 06:00:00
6:30 AM,48.2,46.4,93,29.44,3.7,SSW,6.9,-,N/A,Rain,Light Rain,200,2013-11-06 06:30:00
7:00 AM,48.2,46.4,93,29.44,2.5,South,5.8,-,N/A,Rain,Light Rain,180,2013-11-06 07:00:00
7:30 AM,48.2,46.4,93,29.44,3.1,South,6.9,-,N/A,Rain,Light Rain,180,2013-11-06 07:30:00
8:00 AM,48.2,46.4,93,29.44,3.7,South,6.9,-,N/A,,Light Drizzle,180,2013-11-06 08:00:00
8:30 AM,48.2,46.4,93,29.44,3.1,South,6.9,-,N/A,Rain,Light Rain,170,2013-11-06 08:30:00
9:00 AM,48.2,46.4,93,29.44,3.7,South,6.9,-,N/A,,Light Drizzle,190,2013-11-06 09:00:00
9:30 AM,48.2,48.2,100,29.44,3.1,South,8.1,-,N/A,Rain,Light Rain,190,2013-11-06 09:30:00
10:00 AM,48.2,48.2,100,29.42,3.7,SSW,6.9,-,N/A,Rain,Light Rain,210,2013-11-06 10:00:00
10:30 AM,48.2,48.2,100,29.42,3.7,SSW,4.6,-,N/A,Rain,Light Rain,200,2013-11-06 10:30:00
11:00 AM,48.2,48.2,100,29.42,4.3,South,5.8,-,N/A,Rain,Light Rain,170,2013-11-06 11:00:00
11:30 AM,48.2,48.2,100,29.42,3.7,South,4.6,-,N/A,Rain,Light Rain,170,2013-11-06 11:30:00
12:00 PM,49,49,98,29.42,3,South,4.5,,,Rain,Light Rain,190,2013-11-06 12:00:00
12:00 PM,50.0,48.2,94,29.42,3.1,South,4.6,-,N/A,Rain,Light Rain,190,2013-11-06 12:00:00
12:30 PM,50.0,48.2,94,29.42,3.1,WSW,8.1,-,N/A,Rain,Light Rain,240,2013-11-06 12:30:00
1:00 PM,50.0,48.2,94,29.42,2.5,West,5.8,-,N/A,Rain,Light Rain,270,2013-11-06 13:00:00
1:30 PM,50.0,48.2,94,29.39,4.3,West,6.9,-,N/A,,Mostly Cloudy,270,2013-11-06 13:30:00
2:00 PM,50.0,48.2,94,29.39,4.3,WNW,9.2,-,N/A,Rain,Light Rain,300,2013-11-06 14:00:00
2:30 PM,48.2,46.4,93,29.39,5.6,West,8.1,-,N/A,,Light Drizzle,280,2013-11-06 14:30:00
3:00 PM,48.2,46.4,93,29.42,3.1,West,10.4,-,N/A,Rain,Light Rain,270,2013-11-06 15:00:00
3:30 PM,48.2,46.4,93,29.42,5.0,West,9.2,-,N/A,Rain,Light Rain,270,2013-11-06 15:30:00
4:00 PM,48.2,46.4,93,29.42,5.0,West,9.2,-,N/A,Rain,Light Rain,260,2013-11-06 16:00:00
4:30 PM,46.4,46.4,100,29.44,5.0,West,10.4,-,N/A,Rain,Light Rain,280,2013-11-06 16:30:00
5:00 PM,46.4,44.6,93,29.44,6.2,West,8.1,-,N/A,Rain,Light Rain,270,2013-11-06 17:00:00
5:30 PM,46.4,44.6,93,29.47,6.2,West,4.6,-,N/A,,Mostly Cloudy,270,2013-11-06 17:30:00
6:00 PM,46,44,92,29.49,5,West,6.7,,,Rain,Light Rain,260,2013-11-06 18:00:00
6:00 PM,46.4,44.6,93,29.47,5.0,West,5.8,-,N/A,Rain,Light Rain,260,2013-11-06 18:00:00
6:30 PM,46.4,44.6,93,29.50,6.2,WSW,3.5,-,N/A,,Mostly Cloudy,240,2013-11-06 18:30:00
7:00 PM,46.4,44.6,93,29.50,6.2,SSW,5.8,-,N/A,,Scattered Clouds,210,2013-11-06 19:00:00
7:30 PM,44.6,44.6,100,29.53,6.2,West,6.9,-,N/A,Rain,Light Rain,260,2013-11-06 19:30:00
8:00 PM,44.6,42.8,93,29.53,6.2,WSW,6.9,-,N/A,,Mostly Cloudy,250,2013-11-06 20:00:00
8:30 PM,44.6,42.8,93,29.53,6.2,SSW,6.9,-,N/A,,Partly Cloudy,210,2013-11-06 20:30:00
9:00 PM,44.6,42.8,93,29.56,6.2,SW,6.9,-,N/A,Rain,Light Rain,220,2013-11-06 21:00:00
9:30 PM,42.8,41.0,93,29.56,6.2,WSW,6.9,-,N/A,,Scattered Clouds,240,2013-11-06 21:30:00
10:00 PM,44.6,42.8,93,29.56,6.2,SW,9.2,-,N/A,,Partly Cloudy,220,2013-11-06 22:00:00
10:30 PM,44.6,41.0,87,29.56,6.2,West,9.2,-,N/A,,Mostly Cloudy,270,2013-11-06 22:30:00
11:00 PM,44.6,41.0,87,29.59,6.2,West,8.1,-,N/A,,Mostly Cloudy,270,2013-11-06 23:00:00
11:30 PM,42.8,41.0,93,29.59,6.2,WSW,6.9,-,N/A,,Mostly Cloudy,240,2013-11-06 23:30:00